Bonaire, Bonaire

7:16 AM AST op 20 oktober 2014 (GMT -0400)
Nikiboko | Change Station
CLOSE
Current Station
Persoonlijk weerstation
Location: Bonaire, Bonaire
Geometrische hoogte: 33 ft
Nabije weerstations

Hoogte 33 ft 12.15 °N, 68.27 °W | Updated 3 minutes ago

Thunderstorm
Onweersbui
82.3 °F
Voelt als 92 °F
N
5.0
Wind Variabel Wind van OZO
Gusts 7.0 mijl/u

Vandaag
Hoog -- | Laag -- °F
--% Kans op neerslag
Gisteren
Hoog -- | Laag -- °F
Precip. -- inches
6:23 AM 6:12 PM
Afnemende halvemaan, 11% visible
Druk 29.89 inches
Zicht 6.2 mijlen
Wolken Gering 1000 ft
Licht bewolkt 1500 ft
Warmteindex 92 °F
Dauwpunt 78 °F
Vochtigheid 87%
Neerslag 0.00 inches
Dikte sneeuw Niet beschikbaar.
UV 0 van de 12
Pollen Niet beschikbaar.
Luchtkwaliteit Niet beschikbaar.
Flu Activity Niet beschikbaar.
METAR TNCC 201000Z 10008KT 9999 TS FEW010CB SCT015 28/25 Q1012 NOSIG

More Conditions Fewer Conditions

Druk 29.89 inches
Zicht 6.2 mijlen
Wolken Gering 1000 ft
Licht bewolkt 1500 ft
Warmteindex 92 °F
Dauwpunt 78 °F
Vochtigheid 87%
Neerslag 0.00 inches
Dikte sneeuw Niet beschikbaar.
UV 0 van de 12
Pollen Niet beschikbaar.
Luchtkwaliteit Niet beschikbaar.
Flu Activity Niet beschikbaar.
METAR TNCC 201000Z 10008KT 9999 TS FEW010CB SCT015 28/25 Q1012 NOSIG

More Conditions Fewer Conditions

10-Day Weather Forecast

Almanac

Astronomie

Oct. 20, 2014 Opkomst Ondergang
Werkelijke tijd 6:23 AM AST 6:12 PM AST
Burgerlijke schemering 6:02 AM AST 6:33 PM AST
Nautische schemering 5:37 AM AST 6:58 PM AST
Astronomische schemering 5:12 AM AST 7:23 PM AST
Maan 3:41 AM AST 4:05 PM AST
Golflengte van het zichtbare licht 12h 31m
Daglengte
11h 48m
Tomorrow will be 0m 36s shorter.
Afnemende halvemaan, 11% of the Moon is Illuminated
Vandaag
Afnemende halvemaan
oktober 23
Nieuw
oktober 30
Eerste kwartier
nov 6
Volle maan
nov 14
Laatste kwartier

Extremen gisteren

Country Highs Country Lows

Community

WunderPhotos

Upload Photos

1,763,338 foto’s ge-upload!

Nearby

Luchtkwaliteit

Not available.

Dikte sneeuw

Not available.

Aardbevingen

Stad Distance Mag. Time & Date
No recent earthquake activity has been reported nearby.
Minimum magnitude displayed is 2.5.

Watertemperatuur langs de kust

Plaats Temperatuur
Geen meldingen van stations

Nabije weerstations